sensor_id;sensor_type;location;lat;lon;timestamp;P1;durP1;ratioP1;P2;durP2;ratioP2
19923;SDS011;10124;53.068;18.224;2022-07-29T00:01:40;5.43;;;2.57;;
19923;SDS011;10124;53.068;18.224;2022-07-29T00:04:08;7.87;;;2.70;;
19923;SDS011;10124;53.068;18.224;2022-07-29T00:06:35;7.57;;;2.90;;
19923;SDS011;10124;53.068;18.224;2022-07-29T00:09:03;6.77;;;2.93;;
19923;SDS011;10124;53.068;18.224;2022-07-29T00:11:30;8.20;;;3.27;;
19923;SDS011;10124;53.068;18.224;2022-07-29T00:13:58;7.60;;;2.70;;
19923;SDS011;10124;53.068;18.224;2022-07-29T00:16:25;8.57;;;3.20;;
19923;SDS011;10124;53.068;18.224;2022-07-29T00:18:52;8.37;;;3.23;;
19923;SDS011;10124;53.068;18.224;2022-07-29T00:21:20;6.10;;;3.20;;
19923;SDS011;10124;53.068;18.224;2022-07-29T00:23:47;9.53;;;3.67;;
19923;SDS011;10124;53.068;18.224;2022-07-29T00:26:14;4.43;;;2.63;;
19923;SDS011;10124;53.068;18.224;2022-07-29T00:28:42;7.30;;;2.70;;
19923;SDS011;10124;53.068;18.224;2022-07-29T00:31:09;8.57;;;2.90;;
19923;SDS011;10124;53.068;18.224;2022-07-29T00:33:37;7.23;;;3.30;;
19923;SDS011;10124;53.068;18.224;2022-07-29T00:36:04;9.63;;;3.63;;
19923;SDS011;10124;53.068;18.224;2022-07-29T00:38:32;8.80;;;3.13;;
19923;SDS011;10124;53.068;18.224;2022-07-29T00:40:59;5.60;;;3.00;;
19923;SDS011;10124;53.068;18.224;2022-07-29T00:43:26;6.77;;;3.00;;
19923;SDS011;10124;53.068;18.224;2022-07-29T00:45:54;5.20;;;2.87;;
19923;SDS011;10124;53.068;18.224;2022-07-29T00:48:21;8.37;;;3.07;;
19923;SDS011;10124;53.068;18.224;2022-07-29T00:50:48;5.60;;;3.27;;
19923;SDS011;10124;53.068;18.224;2022-07-29T00:53:16;9.23;;;2.70;;
19923;SDS011;10124;53.068;18.224;2022-07-29T00:55:44;6.63;;;3.20;;
19923;SDS011;10124;53.068;18.224;2022-07-29T00:58:11;6.50;;;3.30;;
19923;SDS011;10124;53.068;18.224;2022-07-29T01:00:42;9.87;;;2.80;;
19923;SDS011;10124;53.068;18.224;2022-07-29T01:03:11;4.80;;;2.10;;
19923;SDS011;10124;53.068;18.224;2022-07-29T01:05:38;8.27;;;3.60;;
19923;SDS011;10124;53.068;18.224;2022-07-29T01:08:17;7.30;;;2.70;;
19923;SDS011;10124;53.068;18.224;2022-07-29T01:10:46;6.67;;;3.20;;
19923;SDS011;10124;53.068;18.224;2022-07-29T01:13:14;6.93;;;2.80;;
19923;SDS011;10124;53.068;18.224;2022-07-29T01:15:44;8.37;;;3.03;;
19923;SDS011;10124;53.068;18.224;2022-07-29T01:18:16;3.33;;;2.40;;
19923;SDS011;10124;53.068;18.224;2022-07-29T01:24:07;5.37;;;2.67;;
19923;SDS011;10124;53.068;18.224;2022-07-29T01:29:21;4.93;;;2.67;;
19923;SDS011;10124;53.068;18.224;2022-07-29T01:32:05;6.57;;;3.00;;
19923;SDS011;10124;53.068;18.224;2022-07-29T01:37:24;10.23;;;3.17;;
19923;SDS011;10124;53.068;18.224;2022-07-29T01:39:57;14.03;;;3.23;;
19923;SDS011;10124;53.068;18.224;2022-07-29T01:42:44;12.27;;;3.30;;
19923;SDS011;10124;53.068;18.224;2022-07-29T01:45:16;6.57;;;3.63;;
19923;SDS011;10124;53.068;18.224;2022-07-29T01:48:03;7.00;;;2.50;;
19923;SDS011;10124;53.068;18.224;2022-07-29T01:50:40;5.63;;;3.03;;
19923;SDS011;10124;53.068;18.224;2022-07-29T01:53:26;12.10;;;3.33;;
19923;SDS011;10124;53.068;18.224;2022-07-29T01:56:03;6.27;;;3.50;;
19923;SDS011;10124;53.068;18.224;2022-07-29T01:58:33;7.87;;;2.80;;
19923;SDS011;10124;53.068;18.224;2022-07-29T02:01:05;6.10;;;3.37;;
19923;SDS011;10124;53.068;18.224;2022-07-29T02:03:35;4.03;;;2.77;;
19923;SDS011;10124;53.068;18.224;2022-07-29T02:06:04;6.83;;;2.90;;
19923;SDS011;10124;53.068;18.224;2022-07-29T02:08:33;6.63;;;3.20;;
19923;SDS011;10124;53.068;18.224;2022-07-29T02:11:03;5.60;;;3.37;;
19923;SDS011;10124;53.068;18.224;2022-07-29T02:13:32;9.67;;;3.50;;
19923;SDS011;10124;53.068;18.224;2022-07-29T02:16:02;3.77;;;2.87;;
19923;SDS011;10124;53.068;18.224;2022-07-29T02:18:33;9.93;;;3.77;;
19923;SDS011;10124;53.068;18.224;2022-07-29T02:21:03;3.67;;;2.90;;
19923;SDS011;10124;53.068;18.224;2022-07-29T02:23:40;5.13;;;3.00;;
19923;SDS011;10124;53.068;18.224;2022-07-29T02:26:16;4.87;;;2.77;;
19923;SDS011;10124;53.068;18.224;2022-07-29T02:28:44;6.17;;;3.47;;
19923;SDS011;10124;53.068;18.224;2022-07-29T02:31:13;12.07;;;3.53;;
19923;SDS011;10124;53.068;18.224;2022-07-29T02:33:43;5.77;;;3.30;;
19923;SDS011;10124;53.068;18.224;2022-07-29T02:36:12;7.00;;;2.77;;
19923;SDS011;10124;53.068;18.224;2022-07-29T02:38:42;6.37;;;3.40;;
19923;SDS011;10124;53.068;18.224;2022-07-29T02:41:17;4.27;;;2.80;;
19923;SDS011;10124;53.068;18.224;2022-07-29T02:44:03;8.60;;;3.30;;
19923;SDS011;10124;53.068;18.224;2022-07-29T02:46:35;5.50;;;3.20;;
19923;SDS011;10124;53.068;18.224;2022-07-29T02:49:18;6.90;;;3.47;;
19923;SDS011;10124;53.068;18.224;2022-07-29T02:52:00;4.80;;;2.73;;
19923;SDS011;10124;53.068;18.224;2022-07-29T02:57:06;8.23;;;3.43;;
19923;SDS011;10124;53.068;18.224;2022-07-29T02:59:45;5.87;;;3.80;;
19923;SDS011;10124;53.068;18.224;2022-07-29T03:02:16;8.70;;;3.37;;
19923;SDS011;10124;53.068;18.224;2022-07-29T03:04:44;5.70;;;3.10;;
19923;SDS011;10124;53.068;18.224;2022-07-29T03:07:15;9.77;;;4.63;;
19923;SDS011;10124;53.068;18.224;2022-07-29T03:09:46;11.47;;;4.33;;
19923;SDS011;10124;53.068;18.224;2022-07-29T03:12:13;9.93;;;4.07;;
19923;SDS011;10124;53.068;18.224;2022-07-29T03:14:42;7.87;;;3.63;;
19923;SDS011;10124;53.068;18.224;2022-07-29T03:17:10;17.00;;;4.40;;
19923;SDS011;10124;53.068;18.224;2022-07-29T03:19:52;12.07;;;3.50;;
19923;SDS011;10124;53.068;18.224;2022-07-29T03:22:24;7.37;;;3.47;;
19923;SDS011;10124;53.068;18.224;2022-07-29T03:24:52;6.47;;;3.77;;
19923;SDS011;10124;53.068;18.224;2022-07-29T03:27:20;12.07;;;4.03;;
19923;SDS011;10124;53.068;18.224;2022-07-29T03:30:07;9.20;;;3.93;;
19923;SDS011;10124;53.068;18.224;2022-07-29T03:32:36;6.00;;;3.77;;
19923;SDS011;10124;53.068;18.224;2022-07-29T03:35:05;13.03;;;3.70;;
19923;SDS011;10124;53.068;18.224;2022-07-29T03:37:33;11.40;;;3.30;;
19923;SDS011;10124;53.068;18.224;2022-07-29T03:40:05;23.87;;;4.73;;
19923;SDS011;10124;53.068;18.224;2022-07-29T03:42:36;15.13;;;3.50;;
19923;SDS011;10124;53.068;18.224;2022-07-29T03:45:07;10.93;;;4.07;;
19923;SDS011;10124;53.068;18.224;2022-07-29T03:47:39;13.83;;;4.73;;
19923;SDS011;10124;53.068;18.224;2022-07-29T03:50:18;11.10;;;4.10;;
19923;SDS011;10124;53.068;18.224;2022-07-29T03:52:48;15.23;;;4.57;;
19923;SDS011;10124;53.068;18.224;2022-07-29T03:55:16;11.80;;;3.70;;
19923;SDS011;10124;53.068;18.224;2022-07-29T03:57:43;7.73;;;3.30;;
19923;SDS011;10124;53.068;18.224;2022-07-29T04:00:13;4.87;;;3.00;;
19923;SDS011;10124;53.068;18.224;2022-07-29T04:02:43;8.23;;;3.10;;
19923;SDS011;10124;53.068;18.224;2022-07-29T04:05:16;5.27;;;3.07;;
19923;SDS011;10124;53.068;18.224;2022-07-29T04:07:47;7.07;;;3.33;;
19923;SDS011;10124;53.068;18.224;2022-07-29T04:10:15;71.23;;;8.37;;
19923;SDS011;10124;53.068;18.224;2022-07-29T04:12:58;88.27;;;9.63;;
19923;SDS011;10124;53.068;18.224;2022-07-29T04:15:26;46.67;;;6.77;;
19923;SDS011;10124;53.068;18.224;2022-07-29T04:17:57;11.63;;;3.40;;
19923;SDS011;10124;53.068;18.224;2022-07-29T04:20:26;8.57;;;3.57;;
19923;SDS011;10124;53.068;18.224;2022-07-29T04:22:53;5.13;;;3.57;;
19923;SDS011;10124;53.068;18.224;2022-07-29T04:25:21;5.77;;;3.00;;
19923;SDS011;10124;53.068;18.224;2022-07-29T04:27:49;7.97;;;4.33;;
19923;SDS011;10124;53.068;18.224;2022-07-29T04:30:30;5.13;;;3.37;;
19923;SDS011;10124;53.068;18.224;2022-07-29T04:32:58;4.57;;;3.83;;
19923;SDS011;10124;53.068;18.224;2022-07-29T04:35:28;8.70;;;3.43;;
19923;SDS011;10124;53.068;18.224;2022-07-29T04:38:05;4.97;;;3.83;;
19923;SDS011;10124;53.068;18.224;2022-07-29T04:40:41;7.70;;;3.40;;
19923;SDS011;10124;53.068;18.224;2022-07-29T04:43:09;7.50;;;3.33;;
19923;SDS011;10124;53.068;18.224;2022-07-29T04:45:38;7.03;;;3.53;;
19923;SDS011;10124;53.068;18.224;2022-07-29T04:48:05;4.43;;;3.33;;
19923;SDS011;10124;53.068;18.224;2022-07-29T04:50:33;12.97;;;3.57;;
19923;SDS011;10124;53.068;18.224;2022-07-29T04:53:01;7.67;;;3.90;;
19923;SDS011;10124;53.068;18.224;2022-07-29T04:55:29;5.53;;;2.70;;
19923;SDS011;10124;53.068;18.224;2022-07-29T04:57:57;5.20;;;2.83;;
19923;SDS011;10124;53.068;18.224;2022-07-29T05:00:27;6.43;;;3.10;;
19923;SDS011;10124;53.068;18.224;2022-07-29T05:03:08;12.87;;;3.80;;
19923;SDS011;10124;53.068;18.224;2022-07-29T05:05:35;12.23;;;3.30;;
19923;SDS011;10124;53.068;18.224;2022-07-29T05:08:04;4.83;;;2.97;;
19923;SDS011;10124;53.068;18.224;2022-07-29T05:10:33;3.20;;;2.80;;
19923;SDS011;10124;53.068;18.224;2022-07-29T05:13:05;5.67;;;3.17;;
19923;SDS011;10124;53.068;18.224;2022-07-29T05:15:33;5.47;;;2.83;;
19923;SDS011;10124;53.068;18.224;2022-07-29T05:18:02;42.37;;;6.00;;
19923;SDS011;10124;53.068;18.224;2022-07-29T05:20:32;7.77;;;3.40;;
19923;SDS011;10124;53.068;18.224;2022-07-29T05:23:01;11.30;;;3.17;;
19923;SDS011;10124;53.068;18.224;2022-07-29T05:25:29;7.30;;;3.30;;
19923;SDS011;10124;53.068;18.224;2022-07-29T05:28:11;7.40;;;3.40;;
19923;SDS011;10124;53.068;18.224;2022-07-29T05:30:38;5.13;;;2.77;;
19923;SDS011;10124;53.068;18.224;2022-07-29T05:33:06;7.87;;;2.67;;
19923;SDS011;10124;53.068;18.224;2022-07-29T05:35:33;4.53;;;2.63;;
19923;SDS011;10124;53.068;18.224;2022-07-29T05:38:01;7.50;;;2.80;;
19923;SDS011;10124;53.068;18.224;2022-07-29T05:40:29;6.90;;;2.95;;
19923;SDS011;10124;53.068;18.224;2022-07-29T05:42:56;3.65;;;2.65;;
19923;SDS011;10124;53.068;18.224;2022-07-29T05:45:25;4.27;;;2.47;;
19923;SDS011;10124;53.068;18.224;2022-07-29T05:47:53;7.18;;;3.10;;
19923;SDS011;10124;53.068;18.224;2022-07-29T05:50:22;7.00;;;2.20;;
19923;SDS011;10124;53.068;18.224;2022-07-29T05:52:49;7.03;;;2.35;;
19923;SDS011;10124;53.068;18.224;2022-07-29T05:55:44;4.90;;;2.20;;
19923;SDS011;10124;53.068;18.224;2022-07-29T05:58:12;6.30;;;2.50;;
19923;SDS011;10124;53.068;18.224;2022-07-29T06:00:39;4.35;;;2.17;;
19923;SDS011;10124;53.068;18.224;2022-07-29T06:03:07;4.05;;;2.22;;
19923;SDS011;10124;53.068;18.224;2022-07-29T06:05:35;2.83;;;1.90;;
19923;SDS011;10124;53.068;18.224;2022-07-29T06:08:02;6.63;;;2.13;;
19923;SDS011;10124;53.068;18.224;2022-07-29T06:10:34;5.40;;;2.03;;
19923;SDS011;10124;53.068;18.224;2022-07-29T06:13:01;8.57;;;1.92;;
19923;SDS011;10124;53.068;18.224;2022-07-29T06:15:32;8.07;;;2.22;;
19923;SDS011;10124;53.068;18.224;2022-07-29T06:18:02;8.38;;;2.35;;
19923;SDS011;10124;53.068;18.224;2022-07-29T06:20:40;15.32;;;2.75;;
19923;SDS011;10124;53.068;18.224;2022-07-29T06:23:08;10.75;;;2.28;;
19923;SDS011;10124;53.068;18.224;2022-07-29T06:25:39;2.33;;;1.67;;
19923;SDS011;10124;53.068;18.224;2022-07-29T06:28:16;3.65;;;1.58;;
19923;SDS011;10124;53.068;18.224;2022-07-29T06:30:52;2.55;;;1.60;;
19923;SDS011;10124;53.068;18.224;2022-07-29T06:33:20;6.60;;;1.73;;
19923;SDS011;10124;53.068;18.224;2022-07-29T06:35:47;4.88;;;1.65;;
19923;SDS011;10124;53.068;18.224;2022-07-29T06:38:19;4.53;;;1.60;;
19923;SDS011;10124;53.068;18.224;2022-07-29T06:41:00;2.83;;;1.23;;
19923;SDS011;10124;53.068;18.224;2022-07-29T06:43:35;3.92;;;1.40;;
19923;SDS011;10124;53.068;18.224;2022-07-29T06:46:19;4.82;;;1.23;;
19923;SDS011;10124;53.068;18.224;2022-07-29T06:48:47;4.88;;;1.70;;
19923;SDS011;10124;53.068;18.224;2022-07-29T06:51:15;3.95;;;1.30;;
19923;SDS011;10124;53.068;18.224;2022-07-29T06:53:50;2.03;;;1.33;;
19923;SDS011;10124;53.068;18.224;2022-07-29T06:56:27;2.65;;;1.00;;
19923;SDS011;10124;53.068;18.224;2022-07-29T06:58:57;1.35;;;0.93;;
19923;SDS011;10124;53.068;18.224;2022-07-29T07:01:29;1.75;;;0.95;;
19923;SDS011;10124;53.068;18.224;2022-07-29T07:03:58;4.05;;;1.27;;
19923;SDS011;10124;53.068;18.224;2022-07-29T07:06:26;3.58;;;1.00;;
19923;SDS011;10124;53.068;18.224;2022-07-29T07:08:54;1.52;;;1.13;;
19923;SDS011;10124;53.068;18.224;2022-07-29T07:11:24;3.75;;;1.17;;
19923;SDS011;10124;53.068;18.224;2022-07-29T07:13:54;4.10;;;1.17;;
19923;SDS011;10124;53.068;18.224;2022-07-29T07:16:28;17.20;;;2.42;;
19923;SDS011;10124;53.068;18.224;2022-07-29T07:18:56;5.07;;;1.13;;
19923;SDS011;10124;53.068;18.224;2022-07-29T07:21:24;6.03;;;1.55;;
19923;SDS011;10124;53.068;18.224;2022-07-29T07:23:54;3.50;;;1.20;;
19923;SDS011;10124;53.068;18.224;2022-07-29T07:26:21;6.00;;;1.67;;
19923;SDS011;10124;53.068;18.224;2022-07-29T07:28:49;3.92;;;1.20;;
19923;SDS011;10124;53.068;18.224;2022-07-29T07:31:17;3.20;;;1.15;;
19923;SDS011;10124;53.068;18.224;2022-07-29T07:33:45;5.43;;;0.85;;
19923;SDS011;10124;53.068;18.224;2022-07-29T07:36:12;3.60;;;0.98;;
19923;SDS011;10124;53.068;18.224;2022-07-29T07:38:40;3.95;;;1.35;;
19923;SDS011;10124;53.068;18.224;2022-07-29T07:41:07;1.23;;;0.75;;
19923;SDS011;10124;53.068;18.224;2022-07-29T07:43:34;2.78;;;1.08;;
19923;SDS011;10124;53.068;18.224;2022-07-29T07:46:02;2.10;;;0.85;;
19923;SDS011;10124;53.068;18.224;2022-07-29T07:48:29;4.53;;;1.05;;
19923;SDS011;10124;53.068;18.224;2022-07-29T07:50:56;7.32;;;1.23;;
19923;SDS011;10124;53.068;18.224;2022-07-29T07:53:24;4.32;;;1.45;;
19923;SDS011;10124;53.068;18.224;2022-07-29T07:55:51;4.38;;;1.20;;
19923;SDS011;10124;53.068;18.224;2022-07-29T07:58:37;2.47;;;0.95;;
19923;SDS011;10124;53.068;18.224;2022-07-29T08:01:05;5.85;;;1.10;;
19923;SDS011;10124;53.068;18.224;2022-07-29T08:03:32;3.03;;;0.93;;
19923;SDS011;10124;53.068;18.224;2022-07-29T08:06:00;3.30;;;1.20;;
19923;SDS011;10124;53.068;18.224;2022-07-29T08:08:27;48.13;;;5.07;;
19923;SDS011;10124;53.068;18.224;2022-07-29T08:10:55;6.20;;;1.10;;
19923;SDS011;10124;53.068;18.224;2022-07-29T08:13:25;7.57;;;1.20;;
19923;SDS011;10124;53.068;18.224;2022-07-29T08:15:57;3.05;;;1.10;;
19923;SDS011;10124;53.068;18.224;2022-07-29T08:18:27;9.07;;;1.45;;
19923;SDS011;10124;53.068;18.224;2022-07-29T08:20:57;4.28;;;1.10;;
19923;SDS011;10124;53.068;18.224;2022-07-29T08:23:25;3.50;;;0.85;;
19923;SDS011;10124;53.068;18.224;2022-07-29T08:26:12;10.95;;;1.02;;
19923;SDS011;10124;53.068;18.224;2022-07-29T08:28:41;4.72;;;1.08;;
19923;SDS011;10124;53.068;18.224;2022-07-29T08:31:13;4.28;;;1.02;;
19923;SDS011;10124;53.068;18.224;2022-07-29T08:33:41;4.10;;;1.20;;
19923;SDS011;10124;53.068;18.224;2022-07-29T08:36:11;4.53;;;1.17;;
19923;SDS011;10124;53.068;18.224;2022-07-29T08:39:00;3.40;;;1.27;;
19923;SDS011;10124;53.068;18.224;2022-07-29T08:41:38;6.13;;;0.93;;
19923;SDS011;10124;53.068;18.224;2022-07-29T08:44:22;2.95;;;0.77;;
19923;SDS011;10124;53.068;18.224;2022-07-29T08:46:56;1.17;;;0.70;;
19923;SDS011;10124;53.068;18.224;2022-07-29T08:49:24;2.95;;;0.98;;
19923;SDS011;10124;53.068;18.224;2022-07-29T08:51:51;5.20;;;0.80;;
19923;SDS011;10124;53.068;18.224;2022-07-29T08:54:20;2.72;;;0.68;;
19923;SDS011;10124;53.068;18.224;2022-07-29T08:56:50;3.13;;;1.10;;
19923;SDS011;10124;53.068;18.224;2022-07-29T08:59:20;11.82;;;1.67;;
19923;SDS011;10124;53.068;18.224;2022-07-29T09:01:51;1.60;;;0.80;;
19923;SDS011;10124;53.068;18.224;2022-07-29T09:04:21;4.05;;;0.77;;
19923;SDS011;10124;53.068;18.224;2022-07-29T09:06:51;22.95;;;3.00;;
19923;SDS011;10124;53.068;18.224;2022-07-29T09:09:22;14.68;;;1.80;;
19923;SDS011;10124;53.068;18.224;2022-07-29T09:11:49;3.95;;;1.10;;
19923;SDS011;10124;53.068;18.224;2022-07-29T09:14:18;9.50;;;1.75;;
19923;SDS011;10124;53.068;18.224;2022-07-29T09:16:50;6.10;;;1.25;;
19923;SDS011;10124;53.068;18.224;2022-07-29T09:19:22;8.18;;;1.95;;
19923;SDS011;10124;53.068;18.224;2022-07-29T09:21:52;5.35;;;1.00;;
19923;SDS011;10124;53.068;18.224;2022-07-29T09:24:37;5.43;;;1.40;;
19923;SDS011;10124;53.068;18.224;2022-07-29T09:27:18;2.05;;;0.95;;
19923;SDS011;10124;53.068;18.224;2022-07-29T09:29:55;5.80;;;1.25;;
19923;SDS011;10124;53.068;18.224;2022-07-29T09:32:23;2.83;;;0.98;;
19923;SDS011;10124;53.068;18.224;2022-07-29T09:34:54;2.85;;;1.67;;
19923;SDS011;10124;53.068;18.224;2022-07-29T09:37:49;4.07;;;1.30;;
19923;SDS011;10124;53.068;18.224;2022-07-29T09:40:22;3.92;;;0.90;;
19923;SDS011;10124;53.068;18.224;2022-07-29T09:42:52;13.25;;;1.48;;
19923;SDS011;10124;53.068;18.224;2022-07-29T09:45:28;3.03;;;0.90;;
19923;SDS011;10124;53.068;18.224;2022-07-29T09:47:56;13.52;;;1.55;;
19923;SDS011;10124;53.068;18.224;2022-07-29T09:50:37;4.95;;;1.40;;
19923;SDS011;10124;53.068;18.224;2022-07-29T09:53:05;2.10;;;0.90;;
19923;SDS011;10124;53.068;18.224;2022-07-29T09:55:40;4.00;;;1.23;;
19923;SDS011;10124;53.068;18.224;2022-07-29T09:58:18;4.10;;;1.35;;
19923;SDS011;10124;53.068;18.224;2022-07-29T10:00:47;4.40;;;1.05;;
19923;SDS011;10124;53.068;18.224;2022-07-29T10:03:17;2.17;;;1.05;;
19923;SDS011;10124;53.068;18.224;2022-07-29T10:05:45;3.80;;;1.13;;
19923;SDS011;10124;53.068;18.224;2022-07-29T10:08:13;5.40;;;1.20;;
19923;SDS011;10124;53.068;18.224;2022-07-29T10:10:41;3.92;;;0.93;;
19923;SDS011;10124;53.068;18.224;2022-07-29T10:13:21;6.30;;;1.17;;
19923;SDS011;10124;53.068;18.224;2022-07-29T10:15:49;3.95;;;1.05;;
19923;SDS011;10124;53.068;18.224;2022-07-29T10:18:17;2.28;;;1.00;;
19923;SDS011;10124;53.068;18.224;2022-07-29T10:20:46;9.75;;;1.00;;
19923;SDS011;10124;53.068;18.224;2022-07-29T10:23:15;9.20;;;1.30;;
19923;SDS011;10124;53.068;18.224;2022-07-29T10:25:45;2.45;;;0.88;;
19923;SDS011;10124;53.068;18.224;2022-07-29T10:28:12;3.10;;;0.80;;
19923;SDS011;10124;53.068;18.224;2022-07-29T10:30:42;6.80;;;1.20;;
19923;SDS011;10124;53.068;18.224;2022-07-29T10:33:18;32.25;;;2.92;;
19923;SDS011;10124;53.068;18.224;2022-07-29T10:36:02;3.92;;;0.95;;
19923;SDS011;10124;53.068;18.224;2022-07-29T10:38:35;2.45;;;0.80;;
19923;SDS011;10124;53.068;18.224;2022-07-29T10:44:19;3.08;;;0.85;;
19923;SDS011;10124;53.068;18.224;2022-07-29T10:46:49;8.00;;;1.45;;
19923;SDS011;10124;53.068;18.224;2022-07-29T10:49:20;8.65;;;0.73;;
19923;SDS011;10124;53.068;18.224;2022-07-29T10:54:44;2.70;;;1.17;;
19923;SDS011;10124;53.068;18.224;2022-07-29T10:57:27;2.67;;;1.00;;
19923;SDS011;10124;53.068;18.224;2022-07-29T11:00:26;11.77;;;1.10;;
19923;SDS011;10124;53.068;18.224;2022-07-29T11:02:56;4.13;;;1.08;;
19923;SDS011;10124;53.068;18.224;2022-07-29T11:05:25;3.00;;;0.93;;
19923;SDS011;10124;53.068;18.224;2022-07-29T11:10:52;7.22;;;1.98;;
19923;SDS011;10124;53.068;18.224;2022-07-29T11:16:58;2.15;;;1.08;;
19923;SDS011;10124;53.068;18.224;2022-07-29T11:19:51;2.67;;;0.93;;
19923;SDS011;10124;53.068;18.224;2022-07-29T11:22:31;5.60;;;1.17;;
19923;SDS011;10124;53.068;18.224;2022-07-29T11:25:12;4.25;;;1.20;;
19923;SDS011;10124;53.068;18.224;2022-07-29T11:27:43;4.43;;;1.10;;
19923;SDS011;10124;53.068;18.224;2022-07-29T11:30:13;52.25;;;4.03;;
19923;SDS011;10124;53.068;18.224;2022-07-29T11:32:41;4.25;;;1.10;;
19923;SDS011;10124;53.068;18.224;2022-07-29T11:35:15;2.78;;;1.48;;
19923;SDS011;10124;53.068;18.224;2022-07-29T11:38:24;5.35;;;1.35;;
19923;SDS011;10124;53.068;18.224;2022-07-29T11:43:47;12.05;;;1.38;;
19923;SDS011;10124;53.068;18.224;2022-07-29T11:47:04;2.45;;;1.10;;
19923;SDS011;10124;53.068;18.224;2022-07-29T11:49:22;7.85;;;1.55;;
19923;SDS011;10124;53.068;18.224;2022-07-29T11:51:59;3.38;;;1.05;;
19923;SDS011;10124;53.068;18.224;2022-07-29T11:54:31;4.95;;;1.20;;
19923;SDS011;10124;53.068;18.224;2022-07-29T11:57:21;7.85;;;1.63;;
19923;SDS011;10124;53.068;18.224;2022-07-29T12:00:06;12.80;;;1.80;;
19923;SDS011;10124;53.068;18.224;2022-07-29T12:02:41;7.95;;;1.20;;
19923;SDS011;10124;53.068;18.224;2022-07-29T12:05:39;6.13;;;1.45;;
19923;SDS011;10124;53.068;18.224;2022-07-29T12:08:20;2.55;;;1.10;;
19923;SDS011;10124;53.068;18.224;2022-07-29T12:10:49;15.60;;;1.77;;
19923;SDS011;10124;53.068;18.224;2022-07-29T12:13:19;4.20;;;1.60;;
19923;SDS011;10124;53.068;18.224;2022-07-29T12:15:52;5.65;;;1.27;;
19923;SDS011;10124;53.068;18.224;2022-07-29T12:18:21;66.55;;;6.50;;
19923;SDS011;10124;53.068;18.224;2022-07-29T12:20:59;8.32;;;1.50;;
19923;SDS011;10124;53.068;18.224;2022-07-29T12:23:31;3.88;;;1.30;;
19923;SDS011;10124;53.068;18.224;2022-07-29T12:26:03;4.32;;;0.82;;
19923;SDS011;10124;53.068;18.224;2022-07-29T12:28:36;2.85;;;1.00;;
19923;SDS011;10124;53.068;18.224;2022-07-29T12:31:04;10.70;;;1.63;;
19923;SDS011;10124;53.068;18.224;2022-07-29T12:36:28;5.95;;;1.10;;
19923;SDS011;10124;53.068;18.224;2022-07-29T12:38:55;7.18;;;1.10;;
19923;SDS011;10124;53.068;18.224;2022-07-29T12:41:23;8.00;;;1.20;;
19923;SDS011;10124;53.068;18.224;2022-07-29T12:43:56;13.18;;;2.22;;
19923;SDS011;10124;53.068;18.224;2022-07-29T12:46:27;5.75;;;1.25;;
19923;SDS011;10124;53.068;18.224;2022-07-29T12:48:55;3.53;;;1.30;;
19923;SDS011;10124;53.068;18.224;2022-07-29T12:54:05;3.55;;;0.95;;
19923;SDS011;10124;53.068;18.224;2022-07-29T12:56:37;5.65;;;0.75;;
19923;SDS011;10124;53.068;18.224;2022-07-29T12:59:19;3.63;;;1.10;;
19923;SDS011;10124;53.068;18.224;2022-07-29T13:01:47;4.20;;;1.13;;
19923;SDS011;10124;53.068;18.224;2022-07-29T13:04:24;3.40;;;1.02;;
19923;SDS011;10124;53.068;18.224;2022-07-29T13:06:59;8.13;;;1.10;;
19923;SDS011;10124;53.068;18.224;2022-07-29T13:09:38;2.90;;;0.90;;
19923;SDS011;10124;53.068;18.224;2022-07-29T13:12:07;2.60;;;1.02;;
19923;SDS011;10124;53.068;18.224;2022-07-29T13:22:16;5.78;;;1.15;;
19923;SDS011;10124;53.068;18.224;2022-07-29T13:24:47;3.83;;;0.80;;
19923;SDS011;10124;53.068;18.224;2022-07-29T13:27:20;3.45;;;1.15;;
19923;SDS011;10124;53.068;18.224;2022-07-29T13:29:50;4.72;;;0.90;;
19923;SDS011;10124;53.068;18.224;2022-07-29T13:32:19;15.75;;;1.95;;
19923;SDS011;10124;53.068;18.224;2022-07-29T13:34:55;3.70;;;1.52;;
19923;SDS011;10124;53.068;18.224;2022-07-29T13:37:23;4.60;;;1.30;;
19923;SDS011;10124;53.068;18.224;2022-07-29T13:39:50;19.70;;;1.65;;
19923;SDS011;10124;53.068;18.224;2022-07-29T13:42:19;2.20;;;0.90;;
19923;SDS011;10124;53.068;18.224;2022-07-29T13:44:46;5.38;;;1.20;;
19923;SDS011;10124;53.068;18.224;2022-07-29T13:47:15;5.30;;;1.35;;
19923;SDS011;10124;53.068;18.224;2022-07-29T13:49:43;6.95;;;1.80;;
19923;SDS011;10124;53.068;18.224;2022-07-29T13:52:10;3.40;;;1.00;;
19923;SDS011;10124;53.068;18.224;2022-07-29T13:54:38;7.78;;;1.20;;
19923;SDS011;10124;53.068;18.224;2022-07-29T13:57:09;22.90;;;2.20;;
19923;SDS011;10124;53.068;18.224;2022-07-29T13:59:38;5.13;;;1.15;;
19923;SDS011;10124;53.068;18.224;2022-07-29T14:02:07;1.95;;;1.10;;
19923;SDS011;10124;53.068;18.224;2022-07-29T14:04:37;5.38;;;1.00;;
19923;SDS011;10124;53.068;18.224;2022-07-29T14:07:05;5.80;;;1.15;;
19923;SDS011;10124;53.068;18.224;2022-07-29T14:09:32;3.35;;;1.05;;
19923;SDS011;10124;53.068;18.224;2022-07-29T14:12:07;5.68;;;0.98;;
19923;SDS011;10124;53.068;18.224;2022-07-29T14:14:35;2.65;;;0.80;;
19923;SDS011;10124;53.068;18.224;2022-07-29T14:17:03;4.25;;;1.30;;
19923;SDS011;10124;53.068;18.224;2022-07-29T14:19:34;3.53;;;0.82;;
19923;SDS011;10124;53.068;18.224;2022-07-29T14:22:05;1.67;;;0.70;;
19923;SDS011;10124;53.068;18.224;2022-07-29T14:24:37;2.08;;;0.80;;
19923;SDS011;10124;53.068;18.224;2022-07-29T14:27:05;10.95;;;1.55;;
19923;SDS011;10124;53.068;18.224;2022-07-29T14:29:34;5.53;;;1.10;;
19923;SDS011;10124;53.068;18.224;2022-07-29T14:32:08;5.78;;;0.95;;
19923;SDS011;10124;53.068;18.224;2022-07-29T14:34:37;10.30;;;1.08;;
19923;SDS011;10124;53.068;18.224;2022-07-29T14:37:05;2.80;;;1.17;;
19923;SDS011;10124;53.068;18.224;2022-07-29T14:39:33;3.63;;;0.68;;
19923;SDS011;10124;53.068;18.224;2022-07-29T14:42:09;4.38;;;0.88;;
19923;SDS011;10124;53.068;18.224;2022-07-29T14:44:39;3.40;;;0.75;;
19923;SDS011;10124;53.068;18.224;2022-07-29T14:47:08;4.45;;;0.93;;
19923;SDS011;10124;53.068;18.224;2022-07-29T14:49:36;3.17;;;0.90;;
19923;SDS011;10124;53.068;18.224;2022-07-29T14:52:04;7.75;;;1.30;;
19923;SDS011;10124;53.068;18.224;2022-07-29T14:54:31;4.05;;;1.02;;
19923;SDS011;10124;53.068;18.224;2022-07-29T14:56:59;3.15;;;1.20;;
19923;SDS011;10124;53.068;18.224;2022-07-29T14:59:26;5.22;;;1.35;;
19923;SDS011;10124;53.068;18.224;2022-07-29T15:01:55;2.72;;;1.13;;
19923;SDS011;10124;53.068;18.224;2022-07-29T15:04:23;7.85;;;1.58;;
19923;SDS011;10124;53.068;18.224;2022-07-29T15:06:50;1.90;;;0.93;;
19923;SDS011;10124;53.068;18.224;2022-07-29T15:09:18;6.10;;;1.10;;
19923;SDS011;10124;53.068;18.224;2022-07-29T15:11:47;2.10;;;0.88;;
19923;SDS011;10124;53.068;18.224;2022-07-29T15:14:14;2.40;;;0.90;;
19923;SDS011;10124;53.068;18.224;2022-07-29T15:16:42;4.25;;;0.75;;
19923;SDS011;10124;53.068;18.224;2022-07-29T15:19:14;7.30;;;1.15;;
19923;SDS011;10124;53.068;18.224;2022-07-29T15:21:41;5.88;;;1.25;;
19923;SDS011;10124;53.068;18.224;2022-07-29T15:24:26;7.05;;;1.65;;
19923;SDS011;10124;53.068;18.224;2022-07-29T15:26:55;4.95;;;1.00;;
19923;SDS011;10124;53.068;18.224;2022-07-29T15:29:31;4.13;;;0.90;;
19923;SDS011;10124;53.068;18.224;2022-07-29T15:32:01;1.65;;;1.00;;
19923;SDS011;10124;53.068;18.224;2022-07-29T15:34:29;3.72;;;1.27;;
19923;SDS011;10124;53.068;18.224;2022-07-29T15:37:11;5.03;;;1.15;;
19923;SDS011;10124;53.068;18.224;2022-07-29T15:39:39;4.05;;;1.10;;